createdAt,value
2023-09-09T00:05:51.987Z,13.28
2023-09-09T00:14:15.648Z,13.22
2023-09-09T00:22:40.007Z,13.13
2023-09-09T00:31:03.041Z,13.09
2023-09-09T00:39:25.941Z,13.06
2023-09-09T00:47:49.246Z,13.05
2023-09-09T00:56:12.852Z,12.92
2023-09-09T01:04:36.532Z,12.85
2023-09-09T01:12:59.898Z,12.86
2023-09-09T01:21:25.742Z,12.84
2023-09-09T01:29:49.323Z,12.77
2023-09-09T01:38:12.294Z,12.71
2023-09-09T01:46:36.684Z,12.66
2023-09-09T01:55:00.160Z,12.63
2023-09-09T02:03:23.422Z,12.58
2023-09-09T02:11:46.542Z,12.46
2023-09-09T02:20:11.193Z,12.44
2023-09-09T02:28:34.259Z,12.41
2023-09-09T02:37:21.494Z,12.34
2023-09-09T02:45:44.509Z,12.22
2023-09-09T02:54:07.496Z,12.18
2023-09-09T03:02:30.567Z,12.16
2023-09-09T03:10:54.886Z,12.16
2023-09-09T03:19:18.181Z,12.11
2023-09-09T03:27:41.257Z,12.03
2023-09-09T03:36:04.639Z,11.95
2023-09-09T03:44:27.990Z,11.87
2023-09-09T03:52:51.980Z,11.86
2023-09-09T04:01:15.696Z,11.81
2023-09-09T04:09:42.328Z,11.73
2023-09-09T04:18:07.442Z,11.65
2023-09-09T04:26:30.485Z,11.67
2023-09-09T04:34:53.906Z,11.76
2023-09-09T04:43:17.338Z,11.84
2023-09-09T04:51:40.782Z,11.99
2023-09-09T05:00:08.195Z,12.20
2023-09-09T05:08:31.772Z,12.42
2023-09-09T05:16:55.065Z,12.70
2023-09-09T05:25:18.286Z,12.88
2023-09-09T05:33:42.874Z,13.09
2023-09-09T05:42:09.224Z,13.39
2023-09-09T05:50:32.586Z,13.91
2023-09-09T05:58:55.684Z,14.68
2023-09-09T06:07:21.032Z,15.47
2023-09-09T06:15:44.467Z,16.33
2023-09-09T06:24:08.415Z,17.07
2023-09-09T06:32:32.140Z,17.79
2023-09-09T06:40:56.182Z,18.55
2023-09-09T06:49:19.067Z,19.47
2023-09-09T06:57:43.603Z,20.40
2023-09-09T07:06:06.525Z,21.19
2023-09-09T07:14:30.561Z,21.80
2023-09-09T07:22:54.592Z,22.29
2023-09-09T07:31:17.649Z,22.32
2023-09-09T07:39:53.032Z,22.41
2023-09-09T07:48:16.621Z,22.68
2023-09-09T07:56:43.255Z,22.96
2023-09-09T08:05:08.130Z,23.26
2023-09-09T08:13:31.110Z,23.52
2023-09-09T08:21:54.000Z,23.74
2023-09-09T08:30:18.335Z,23.92
2023-09-09T08:38:41.807Z,24.17
2023-09-09T08:47:04.993Z,24.44
2023-09-09T08:55:28.762Z,24.63
2023-09-09T09:03:52.285Z,24.88
2023-09-09T09:12:16.066Z,25.08
2023-09-09T09:20:41.808Z,25.25
2023-09-09T09:29:07.028Z,25.44
2023-09-09T09:37:30.731Z,25.60
2023-09-09T09:45:53.665Z,25.71
2023-09-09T09:54:19.302Z,25.76
2023-09-09T10:02:44.045Z,25.93
2023-09-09T10:11:11.668Z,26.03
2023-09-09T10:19:37.903Z,26.05
2023-09-09T10:28:03.149Z,26.13
2023-09-09T10:36:28.224Z,26.17
2023-09-09T10:44:51.156Z,26.09
2023-09-09T10:53:15.296Z,26.08
2023-09-09T11:01:38.200Z,26.15
2023-09-09T11:10:04.026Z,26.18
2023-09-09T11:18:27.539Z,26.20
2023-09-09T11:26:56.930Z,26.26
2023-09-09T11:35:20.026Z,26.27
2023-09-09T11:43:42.935Z,26.33
2023-09-09T11:52:06.259Z,26.45
2023-09-09T12:00:29.812Z,26.54
2023-09-09T12:08:52.818Z,26.69
2023-09-09T12:17:15.975Z,26.79
2023-09-09T12:25:39.044Z,26.82
2023-09-09T12:34:03.035Z,26.82
2023-09-09T12:42:26.845Z,26.82
2023-09-09T12:50:49.928Z,26.82
2023-09-09T12:59:12.943Z,26.83
2023-09-09T13:07:35.953Z,26.83
2023-09-09T13:15:59.086Z,26.83
2023-09-09T13:24:22.398Z,26.78
2023-09-09T13:32:46.826Z,26.82
2023-09-09T13:52:03.599Z,26.79
2023-09-09T14:00:39.258Z,26.77
2023-09-09T14:09:14.405Z,26.68
2023-09-09T14:17:51.143Z,26.60
2023-09-09T14:26:15.677Z,26.60
2023-09-09T14:34:38.689Z,26.49
2023-09-09T14:43:01.690Z,26.32
2023-09-09T14:51:25.872Z,26.16
2023-09-09T14:59:48.920Z,25.96
2023-09-09T15:08:11.911Z,25.80
2023-09-09T15:16:52.845Z,25.69
2023-09-09T15:25:15.890Z,25.59
2023-09-09T15:33:38.864Z,25.49
2023-09-09T15:42:02.282Z,25.38
2023-09-09T15:50:28.895Z,25.25
2023-09-09T15:58:52.844Z,25.10
2023-09-09T16:07:19.555Z,24.90
2023-09-09T16:15:42.638Z,24.63
2023-09-09T16:24:08.686Z,24.37
2023-09-09T16:32:33.625Z,24.09
2023-09-09T16:40:57.231Z,23.81
2023-09-09T16:49:20.180Z,23.48
2023-09-09T16:57:43.141Z,23.06
2023-09-09T17:06:07.551Z,22.59
2023-09-09T17:14:32.097Z,22.08
2023-09-09T17:22:55.552Z,21.63
2023-09-09T17:31:18.827Z,21.30
2023-09-09T17:39:41.927Z,20.99
2023-09-09T17:48:05.590Z,20.64
2023-09-09T17:56:28.491Z,20.26
2023-09-09T18:04:51.447Z,19.95
2023-09-09T18:13:14.493Z,19.66
2023-09-09T18:21:38.718Z,19.38
2023-09-09T18:30:04.523Z,19.02
2023-09-09T18:38:30.411Z,18.63
2023-09-09T18:46:55.727Z,18.39
2023-09-09T18:55:18.845Z,18.21
2023-09-09T19:03:41.798Z,18.05
2023-09-09T19:12:08.547Z,17.89
2023-09-09T19:20:34.763Z,17.64
2023-09-09T19:28:58.418Z,17.49
2023-09-09T19:37:27.153Z,17.41
2023-09-09T19:45:52.453Z,17.38
2023-09-09T19:54:16.394Z,17.27
2023-09-09T20:02:39.509Z,17.20
2023-09-09T20:11:06.498Z,17.08
2023-09-09T20:19:29.565Z,16.93
2023-09-09T20:27:55.336Z,16.76
2023-09-09T20:36:20.198Z,16.67
2023-09-09T20:44:43.156Z,16.53
2023-09-09T20:53:07.472Z,16.40
2023-09-09T21:01:36.262Z,16.30
2023-09-09T21:10:03.974Z,16.25
2023-09-09T21:18:34.970Z,16.24
2023-09-09T21:26:59.653Z,16.20
2023-09-09T21:35:22.686Z,16.19
2023-09-09T21:43:47.012Z,16.13
2023-09-09T21:52:10.001Z,16.00
2023-09-09T22:00:34.410Z,15.95
2023-09-09T22:08:59.261Z,15.89
2023-09-09T22:17:23.893Z,15.83
2023-09-09T22:25:48.500Z,15.75
2023-09-09T22:34:11.389Z,15.65
2023-09-09T22:42:34.278Z,15.54
2023-09-09T22:50:59.912Z,15.46
2023-09-09T22:59:23.183Z,15.36
2023-09-09T23:07:52.614Z,15.36
2023-09-09T23:16:15.967Z,15.31
2023-09-09T23:24:45.134Z,15.23
2023-09-09T23:33:08.064Z,15.11
2023-09-09T23:41:33.287Z,15.06
2023-09-09T23:49:56.346Z,14.99
2023-09-09T23:58:21.038Z,14.94
